DW9017 Weather Reports


Display with metric or nautical units.
time (UTC)temp
F
wind
direction
speed
MPH
gust
MPH
rain 1hr
in
rain 24hr
in
rain mn
in
humidity
%
barometer
mb
20240525234538 67 40 0.0 6.0 0.00 0.00 0.00 32 823.1
20240525233037 70 35 1.0 10.0 0.00 0.00 0.00 31 823.1
20240525231537 71 19 0.0 6.0 0.00 0.00 0.00 36 823.0
20240525230138 72 49 0.0 5.0 0.00 0.00 0.00 34 822.9
20240525224603 69 300 0.0 10.0 0.00 0.00 0.00 32 823.1
20240525223052 67 261 5.0 13.0 0.00 0.00 0.00 28 823.3
20240525221551 68 318 0.0 0.0 0.00 0.00 0.00 34 823.3
20240525220045 68 5 4.0 13.0 0.00 0.00 0.00 37 823.5
20240525214548 66 9 4.0 14.0 0.00 0.00 0.00 34 823.5
20240525213047 68 285 9.0 17.0 0.00 0.00 0.00 33 823.5
20240525211555 70 336 7.0 12.0 0.00 0.00 0.00 31 823.2
20240525210040 70 36 3.0 11.0 0.00 0.00 0.00 38 822.9
20240525204539 68 17 0.0 6.0 0.00 0.00 0.00 40 822.9
20240525203038 68 334 2.0 9.0 0.00 0.00 0.00 36 823.1
20240525201536 70 1 4.0 10.0 0.00 0.00 0.00 33 823.1
20240525200057 68 342 3.0 13.0 0.00 0.00 0.00 38 823.1
20240525194556 69 35 0.0 8.0 0.00 0.00 0.00 36 823.3
20240525193054 70 318 2.0 9.0 0.00 0.00 0.00 38 823.2
20240525191550 67 302 1.0 7.0 0.00 0.00 0.00 36 823.2
20240525190048 70 348 4.0 11.0 0.00 0.00 0.00 36 823.3
20240525184558 70 360 1.0 11.0 0.00 0.00 0.00 35 823.5
20240525183051 70 60 2.0 8.0 0.00 0.00 0.00 41 823.6
20240525181553 69 1 0.0 10.0 0.00 0.00 0.00 36 823.7
20240525180101 68 345 3.0 6.0 0.00 0.00 0.00 41 823.7
20240525174557 66 334 2.0 8.0 0.00 0.00 0.00 36 823.8
20240525173146 65 317 1.0 7.0 0.00 0.00 0.00 39 824.0
20240525171555 66 33 4.0 11.0 0.00 0.00 0.00 38 824.2
20240525170104 65 360 6.0 13.0 0.00 0.00 0.00 38 824.2
20240525164553 64 337 3.0 9.0 0.00 0.00 0.00 42 824.2
20240525163053 63 314 0.0 10.0 0.00 0.00 0.00 46 824.3
20240525161549 63 331 1.0 9.0 0.00 0.00 0.00 42 824.5
20240525160102 61 348 0.0 7.0 0.00 0.00 0.00 49 824.7
20240525154545 61 11 2.0 10.0 0.00 0.00 0.00 44 824.7
20240525153054 61 36 0.0 9.0 0.00 0.00 0.00 47 824.9
20240525151547 61 350 1.0 6.0 0.00 0.00 0.00 45 825.2
20240525150005 60 344 2.0 8.0 0.00 0.00 0.00 44 825.2
20240525144502 60 3 0.0 8.0 0.00 0.00 0.00 44 825.2
20240525143059 59 358 1.0 6.0 0.00 0.00 0.00 43 825.3
20240525141601 58 326 3.0 10.0 0.00 0.00 0.00 45 825.4
20240525140053 57 327 0.0 7.0 0.00 0.00 0.00 48 825.4
20240525134549 55 198 0.0 0.0 0.00 0.00 0.00 59 825.4
20240525133046 52 198 0.0 0.0 0.00 0.00 0.00 61 825.5
20240525131547 46 198 0.0 0.0 0.00 0.00 0.00 72 825.4
20240525130040 44 198 0.0 0.0 0.00 0.00 0.00 72 825.4
20240525124539 43 198 0.0 0.0 0.00 0.00 0.00 71 825.4
20240525123038 43 198 0.0 0.0 0.00 0.00 0.00 71 825.4
20240525121537 43 198 0.0 0.0 0.00 0.00 0.00 70 825.3
20240525120059 43 198 0.0 0.0 0.00 0.00 0.00 70 825.3
20240525114608 43 198 0.0 0.0 0.00 0.00 0.00 69 825.3
20240525113100 43 198 0.0 0.0 0.00 0.00 0.00 68 825.4
20240525111552 44 198 0.0 0.0 0.00 0.00 0.00 67 825.5
20240525110057 44 198 0.0 0.0 0.00 0.00 0.00 66 825.5
20240525104558 45 198 0.0 0.0 0.00 0.00 0.00 65 825.7
20240525103050 46 198 0.0 0.0 0.00 0.00 0.00 61 825.8
20240525101546 47 198 0.0 0.0 0.00 0.00 0.00 59 825.7
20240525100059 47 198 0.0 0.0 0.00 0.00 0.00 58 825.8
20240525094549 48 200 0.0 0.0 0.00 0.00 0.00 57 825.8
20240525093042 48 204 0.0 0.0 0.00 0.00 0.00 56 825.9
20240525091541 49 204 0.0 0.0 0.00 0.00 0.00 56 826.0
20240525090104 49 204 0.0 0.0 0.00 0.00 0.00 57 826.1
20240525084608 48 204 0.0 0.0 0.00 0.00 0.00 59 826.1
20240525083057 48 204 0.0 0.0 0.00 0.00 0.00 59 826.2
20240525081617 49 204 0.0 0.0 0.00 0.00 0.00 60 826.4
20240525080059 49 204 0.0 0.0 0.00 0.00 0.00 60 826.6
20240525074558 50 204 0.0 0.0 0.00 0.00 0.00 60 826.6
20240525073053 51 204 0.0 0.0 0.00 0.00 0.00 60 826.9
20240525071545 51 204 0.0 0.0 0.00 0.00 0.00 58 827.1
20240525070047 52 204 0.0 0.0 0.00 0.00 0.00 56 827.2
20240525064542 53 204 0.0 0.0 0.00 0.00 0.00 55 827.4
20240525063042 53 204 0.0 0.0 0.00 0.00 0.00 54 827.6
20240525061535 54 204 0.0 0.0 0.00 0.00 0.00 53 828.0
20240525060056 54 204 0.0 0.0 0.00 0.00 0.00 52 828.1
20240525054553 55 204 0.0 0.0 0.00 0.00 0.00 49 828.2
20240525053051 55 204 0.0 0.0 0.00 0.00 0.00 45 828.5
20240525051549 56 204 0.0 0.0 0.00 0.00 0.00 45 828.5
20240525050046 57 204 0.0 0.0 0.00 0.00 0.00 43 828.8
20240525044545 58 202 0.0 0.0 0.00 0.00 0.00 40 829.0
20240525043044 59 202 0.0 0.0 0.00 0.00 0.00 37 829.1
20240525041543 60 202 0.0 0.0 0.00 0.00 0.00 33 829.1
20240525040038 61 202 0.0 0.0 0.00 0.00 0.00 32 829.1
20240525034538 62 202 0.0 0.0 0.00 0.00 0.00 31 829.0
20240525033038 62 202 0.0 0.0 0.00 0.00 0.00 30 828.9
20240525031550 62 186 0.0 6.0 0.00 0.00 0.00 28 828.8
20240525030049 62 295 0.0 0.0 0.00 0.00 0.00 27 828.2
20240525024548 63 293 0.0 3.0 0.00 0.00 0.00 27 828.0
20240525023048 64 302 0.0 4.0 0.00 0.00 0.00 26 828.1
20240525021548 65 273 1.0 9.0 0.00 0.00 0.00 26 828.3
20240525020045 66 245 5.0 15.0 0.00 0.00 0.00 24 828.2
20240525014548 67 221 9.0 21.0 0.00 0.00 0.00 23 828.0
20240525013044 67 199 6.0 14.0 0.00 0.00 0.00 23 828.0
20240525011546 67 199 3.0 14.0 0.00 0.00 0.00 27 828.0
20240525010034 67 176 3.0 13.0 0.00 0.00 0.00 28 828.0
20240525004534 67 153 4.0 11.0 0.00 0.00 0.00 27 827.8
20240525003039 67 163 9.0 15.0 0.00 0.00 0.00 27 827.8
20240525001533 67 193 5.0 13.0 0.00 0.00 0.00 28 827.7
20240525000018 68 165 8.0 14.0 0.00 0.00 0.00 27 827.8